createdAt,value
2022-08-12T00:00:08.377Z,52.02
2022-08-12T00:00:18.406Z,51.92
2022-08-12T00:00:28.467Z,51.82
2022-08-12T00:00:38.534Z,51.82
2022-08-12T00:00:48.571Z,51.82
2022-08-12T00:00:58.617Z,51.82
2022-08-12T00:01:08.665Z,51.82
2022-08-12T00:01:18.943Z,51.72
2022-08-12T00:02:02.756Z,51.82
2022-08-12T00:02:02.851Z,51.82
2022-08-12T00:02:03.061Z,51.82
2022-08-12T00:02:05.703Z,51.92
2022-08-12T00:02:12.588Z,51.92
2022-08-12T00:02:22.657Z,51.92
2022-08-12T00:02:32.708Z,51.92
2022-08-12T00:02:42.806Z,51.92
2022-08-12T00:02:52.888Z,51.92
2022-08-12T00:03:02.983Z,52.02
2022-08-12T00:03:13.090Z,52.02
2022-08-12T00:03:23.159Z,52.02
2022-08-12T00:03:33.355Z,52.02
2022-08-12T00:03:43.407Z,52.02
2022-08-12T00:03:53.456Z,52.02
2022-08-12T00:04:03.506Z,52.02
2022-08-12T00:04:13.567Z,52.12
2022-08-12T00:04:23.626Z,52.12
2022-08-12T00:04:33.678Z,52.02
2022-08-12T00:04:43.726Z,52.12
2022-08-12T00:04:53.787Z,52.12
2022-08-12T00:05:03.838Z,52.12
2022-08-12T00:05:13.913Z,52.12
2022-08-12T00:05:23.968Z,52.12
2022-08-12T00:05:34.025Z,52.02
2022-08-12T00:05:58.300Z,52.04
2022-08-12T00:06:00.488Z,52.02
2022-08-12T00:06:05.998Z,52.14
2022-08-12T00:06:16.079Z,52.12
2022-08-12T00:06:26.136Z,52.02
2022-08-12T00:06:36.207Z,52.04
2022-08-12T00:06:46.266Z,52.04
2022-08-12T00:06:56.325Z,52.04
2022-08-12T00:07:06.376Z,52.04
2022-08-12T00:07:16.437Z,52.14
2022-08-12T00:07:26.499Z,52.14
2022-08-12T00:07:36.556Z,52.04
2022-08-12T00:07:46.589Z,52.14
2022-08-12T00:07:56.627Z,52.04
2022-08-12T00:08:06.687Z,52.04
2022-08-12T00:08:16.728Z,52.04
2022-08-12T00:08:32.029Z,52.04
2022-08-12T00:08:37.751Z,52.14
2022-08-12T00:08:47.823Z,52.14
2022-08-12T00:08:57.863Z,52.14
2022-08-12T00:09:07.923Z,52.04
2022-08-12T00:09:17.969Z,52.14
2022-08-12T00:09:28.017Z,52.25
2022-08-12T00:09:38.077Z,52.25
2022-08-12T00:09:48.125Z,52.25
2022-08-12T00:09:58.197Z,52.25
2022-08-12T00:10:08.257Z,52.25
2022-08-12T00:10:18.346Z,52.25
2022-08-12T00:10:28.397Z,52.25
2022-08-12T00:10:38.448Z,52.25
2022-08-12T00:10:48.477Z,52.25
2022-08-12T00:10:58.528Z,52.25
2022-08-12T00:11:12.461Z,52.25
2022-08-12T00:11:19.546Z,52.34
2022-08-12T00:11:29.588Z,52.55
2022-08-12T00:11:39.646Z,52.64
2022-08-12T00:11:49.705Z,52.64
2022-08-12T00:11:59.759Z,52.74
2022-08-12T00:12:09.817Z,52.74
2022-08-12T00:12:19.869Z,52.74
2022-08-12T00:12:29.956Z,52.74
2022-08-12T00:12:40.139Z,52.84
2022-08-12T00:12:50.026Z,52.74
2022-08-12T00:13:00.108Z,52.74
2022-08-12T00:13:10.160Z,52.74
2022-08-12T00:13:20.216Z,52.64
2022-08-12T00:13:30.255Z,52.74
2022-08-12T00:13:40.359Z,52.74
2022-08-12T00:13:50.398Z,52.74
2022-08-12T00:14:00.468Z,52.74
2022-08-12T00:14:10.525Z,52.64
2022-08-12T00:14:20.569Z,52.74
2022-08-12T00:14:30.621Z,52.74
2022-08-12T00:14:40.668Z,52.74
2022-08-12T00:14:50.717Z,52.74
2022-08-12T00:15:00.769Z,52.84
2022-08-12T00:15:10.808Z,52.94
2022-08-12T00:15:20.868Z,53.04
2022-08-12T00:15:30.919Z,52.94
2022-08-12T00:15:40.981Z,52.94
2022-08-12T00:15:51.029Z,52.94
2022-08-12T00:16:01.108Z,52.84
2022-08-12T00:16:11.165Z,52.84
2022-08-12T00:16:21.225Z,52.74
2022-08-12T00:16:31.277Z,52.74
2022-08-12T00:16:41.346Z,52.74
2022-08-12T00:16:51.395Z,52.74
2022-08-12T00:17:01.437Z,52.74
2022-08-12T00:17:11.510Z,52.74
2022-08-12T00:17:23.238Z,52.74
2022-08-12T00:17:31.586Z,52.74
2022-08-12T00:17:41.638Z,52.64
2022-08-12T00:17:51.697Z,52.64
2022-08-12T00:18:01.756Z,52.64
2022-08-12T00:18:11.797Z,52.74
2022-08-12T00:18:21.847Z,52.74
2022-08-12T00:18:31.897Z,52.84
2022-08-12T00:18:41.957Z,52.84
2022-08-12T00:18:52.018Z,52.74
2022-08-12T00:19:02.109Z,52.74
2022-08-12T00:19:12.160Z,52.84
2022-08-12T00:19:22.217Z,52.74
2022-08-12T00:19:32.238Z,52.74
2022-08-12T00:19:42.298Z,52.74
2022-08-12T00:19:52.338Z,52.74
2022-08-12T00:20:02.406Z,52.74
2022-08-12T00:20:12.466Z,52.74
2022-08-12T00:20:22.537Z,52.84
2022-08-12T00:20:32.588Z,52.84
2022-08-12T00:20:42.667Z,52.84
2022-08-12T00:20:52.718Z,52.94
2022-08-12T00:21:02.787Z,52.94
2022-08-12T00:21:12.827Z,52.94
2022-08-12T00:21:22.907Z,52.94
2022-08-12T00:21:33.026Z,52.84
2022-08-12T00:21:43.087Z,52.84
2022-08-12T00:21:53.328Z,52.74
2022-08-12T00:22:03.388Z,52.74
2022-08-12T00:22:13.454Z,52.74
2022-08-12T00:22:23.509Z,52.64
2022-08-12T00:22:33.634Z,52.64
2022-08-12T00:22:43.686Z,52.64
2022-08-12T00:22:59.311Z,52.64
2022-08-12T00:23:04.705Z,52.64
2022-08-12T00:23:14.759Z,52.64
2022-08-12T00:23:24.816Z,52.64
2022-08-12T00:23:34.877Z,52.64
2022-08-12T00:23:44.929Z,52.74
2022-08-12T00:23:54.987Z,52.84
2022-08-12T00:24:05.036Z,52.94
2022-08-12T00:24:15.117Z,52.94
2022-08-12T00:24:25.195Z,52.94
2022-08-12T00:24:35.247Z,52.84
2022-08-12T00:24:45.307Z,52.74
2022-08-12T00:24:55.348Z,52.74
2022-08-12T00:25:05.418Z,52.74
2022-08-12T00:25:15.478Z,52.84
2022-08-12T00:25:55.817Z,52.84
2022-08-12T00:26:05.818Z,52.74
2022-08-12T00:26:21.496Z,52.64
2022-08-12T00:26:21.630Z,52.84
2022-08-12T00:26:22.395Z,52.64
2022-08-12T00:26:24.432Z,52.64
2022-08-12T00:26:30.459Z,52.64
2022-08-12T00:26:40.499Z,52.64
2022-08-12T00:26:50.559Z,52.64
2022-08-12T00:27:00.619Z,52.64
2022-08-12T00:27:10.688Z,52.64
2022-08-12T00:27:20.756Z,52.64
2022-08-12T00:27:43.850Z,52.67
2022-08-12T00:27:43.933Z,52.64
2022-08-12T00:27:51.896Z,52.64
2022-08-12T00:28:01.946Z,52.74
2022-08-12T00:28:11.998Z,52.74
2022-08-12T00:28:22.048Z,52.84
2022-08-12T00:28:32.115Z,52.94
2022-08-12T00:28:42.157Z,52.94
2022-08-12T00:28:52.227Z,52.94
2022-08-12T00:29:02.325Z,52.94
2022-08-12T00:29:12.426Z,52.84
2022-08-12T00:29:22.499Z,52.84
2022-08-12T00:29:32.548Z,52.84
2022-08-12T00:29:45.858Z,52.84
2022-08-12T00:29:53.567Z,52.77
2022-08-12T00:30:03.638Z,52.77
2022-08-12T00:30:13.699Z,52.74
2022-08-12T00:30:23.761Z,52.77
2022-08-12T00:30:33.818Z,52.77
2022-08-12T00:30:43.876Z,52.77
2022-08-12T00:30:53.951Z,52.77
2022-08-12T00:31:04.083Z,52.77
2022-08-12T00:31:14.158Z,52.77
2022-08-12T00:31:24.228Z,52.77
2022-08-12T00:31:34.279Z,52.87
2022-08-12T00:31:44.348Z,52.77
2022-08-12T00:31:54.386Z,52.77
2022-08-12T00:32:04.439Z,52.87
2022-08-12T00:32:18.465Z,52.97
2022-08-12T00:32:35.621Z,53.07
2022-08-12T00:32:36.646Z,53.07
2022-08-12T00:32:54.557Z,53.07
2022-08-12T00:32:57.570Z,52.97
2022-08-12T00:33:07.498Z,52.97
2022-08-12T00:33:17.558Z,52.97
2022-08-12T00:33:30.477Z,53.07
2022-08-12T00:33:52.328Z,53.07
2022-08-12T00:33:52.471Z,53.07
2022-08-12T00:33:59.828Z,53.07
2022-08-12T00:34:09.878Z,53.07
2022-08-12T00:34:19.999Z,52.97
2022-08-12T00:34:30.238Z,53.07
2022-08-12T00:34:40.250Z,53.07
2022-08-12T00:34:50.946Z,52.97
2022-08-12T00:35:00.318Z,52.97
2022-08-12T00:35:11.287Z,52.97
2022-08-12T00:35:21.308Z,52.97
2022-08-12T00:35:36.740Z,52.97
2022-08-12T00:35:42.439Z,53.07
2022-08-12T00:35:52.469Z,53.17
2022-08-12T00:36:02.556Z,53.17
2022-08-12T00:36:14.885Z,52.97
2022-08-12T00:36:34.949Z,52.97
2022-08-12T00:36:36.220Z,52.97
2022-08-12T00:36:44.989Z,52.97
2022-08-12T00:36:57.407Z,52.97
2022-08-12T00:37:12.925Z,52.97
2022-08-12T00:37:16.737Z,52.97
2022-08-12T00:37:27.722Z,52.97
2022-08-12T00:37:36.948Z,52.97
2022-08-12T00:37:47.027Z,52.97
2022-08-12T00:37:57.091Z,52.97
2022-08-12T00:38:07.161Z,52.97
2022-08-12T00:38:17.228Z,52.87
2022-08-12T00:38:27.288Z,52.87
2022-08-12T00:38:37.319Z,52.87
2022-08-12T00:38:47.386Z,52.87
2022-08-12T00:38:57.448Z,52.87
2022-08-12T00:39:07.500Z,52.97
2022-08-12T00:39:17.593Z,52.97
2022-08-12T00:39:27.739Z,52.97
2022-08-12T00:39:37.796Z,52.97
2022-08-12T00:39:47.888Z,52.97
2022-08-12T00:39:57.994Z,52.97
2022-08-12T00:40:10.827Z,52.97
2022-08-12T00:40:18.168Z,53.07
2022-08-12T00:40:28.207Z,53.17
2022-08-12T00:40:38.260Z,53.27
2022-08-12T00:40:48.298Z,53.27
2022-08-12T00:40:58.356Z,53.17
2022-08-12T00:41:08.389Z,53.17
2022-08-12T00:41:18.438Z,53.17
2022-08-12T00:41:28.479Z,53.17
2022-08-12T00:41:38.539Z,53.27
2022-08-12T00:41:48.590Z,53.27
2022-08-12T00:41:58.658Z,53.27
2022-08-12T00:42:08.688Z,53.17
2022-08-12T00:42:18.746Z,53.17
2022-08-12T00:42:28.791Z,53.27
2022-08-12T00:42:39.080Z,53.30
2022-08-12T00:42:49.070Z,53.19
2022-08-12T00:42:59.119Z,53.19
2022-08-12T00:43:09.170Z,53.30
2022-08-12T00:43:19.208Z,53.30
2022-08-12T00:43:29.249Z,53.30
2022-08-12T00:43:39.288Z,53.30
2022-08-12T00:43:49.328Z,53.30
2022-08-12T00:43:59.389Z,53.30
2022-08-12T00:44:09.520Z,53.30
2022-08-12T00:44:19.567Z,53.30
2022-08-12T00:44:29.629Z,53.30
2022-08-12T00:44:39.668Z,53.30
2022-08-12T00:44:49.722Z,53.30
2022-08-12T00:44:59.756Z,53.30
2022-08-12T00:45:09.801Z,53.30
2022-08-12T00:45:19.947Z,53.30
2022-08-12T00:45:29.990Z,53.39
2022-08-12T00:45:40.046Z,53.39
2022-08-12T00:45:50.090Z,53.39
2022-08-12T00:46:00.139Z,53.39
2022-08-12T00:46:10.239Z,53.39
2022-08-12T00:46:20.268Z,53.49
2022-08-12T00:46:30.367Z,53.49
2022-08-12T00:46:40.419Z,53.49
2022-08-12T00:46:50.459Z,53.49
2022-08-12T00:47:00.526Z,53.49
2022-08-12T00:47:24.480Z,53.49
2022-08-12T00:47:24.529Z,53.49
2022-08-12T00:47:31.609Z,53.49
2022-08-12T00:47:41.683Z,53.49
2022-08-12T00:47:51.709Z,53.49
2022-08-12T00:48:01.757Z,53.59
2022-08-12T00:48:11.789Z,53.69
2022-08-12T00:48:21.849Z,53.69
2022-08-12T00:48:31.959Z,53.69
2022-08-12T00:48:42.006Z,53.69
2022-08-12T00:48:52.039Z,53.69
2022-08-12T00:49:02.088Z,53.69
2022-08-12T00:49:12.138Z,53.59
2022-08-12T00:49:22.198Z,53.59
2022-08-12T00:49:32.241Z,53.59
2022-08-12T00:49:42.290Z,53.59
2022-08-12T00:49:53.250Z,53.49
2022-08-12T00:50:03.312Z,53.49
2022-08-12T00:50:13.359Z,53.49
2022-08-12T00:50:23.419Z,53.39
2022-08-12T00:50:33.468Z,53.39
2022-08-12T00:50:43.530Z,53.49
2022-08-12T00:50:53.569Z,53.49
2022-08-12T00:51:03.632Z,53.59
2022-08-12T00:51:13.699Z,53.69
2022-08-12T00:51:23.779Z,53.69
2022-08-12T00:51:33.950Z,53.69
2022-08-12T00:51:44.059Z,53.69
2022-08-12T00:51:54.196Z,53.59
2022-08-12T00:52:04.260Z,53.69
2022-08-12T00:52:14.329Z,53.59
2022-08-12T00:52:24.399Z,53.59
2022-08-12T00:52:34.537Z,53.59
2022-08-12T00:52:44.599Z,53.59
2022-08-12T00:52:54.658Z,53.69
2022-08-12T00:53:04.728Z,53.69
2022-08-12T00:53:14.760Z,53.69
2022-08-12T00:53:24.889Z,53.69
2022-08-12T00:53:34.960Z,53.69
2022-08-12T00:53:45.004Z,53.69
2022-08-12T00:53:55.059Z,53.59
2022-08-12T00:54:05.118Z,53.59
2022-08-12T00:54:15.169Z,53.59
2022-08-12T00:54:25.218Z,53.59
2022-08-12T00:54:35.259Z,53.59
2022-08-12T00:54:45.311Z,53.59
2022-08-12T00:54:55.392Z,53.69
2022-08-12T00:55:05.430Z,53.89
2022-08-12T00:55:15.482Z,53.99
2022-08-12T00:55:25.539Z,53.99
2022-08-12T00:55:35.591Z,53.99
2022-08-12T00:55:45.698Z,53.89
2022-08-12T00:55:55.740Z,53.89
2022-08-12T00:56:05.798Z,53.89
2022-08-12T00:56:15.832Z,53.89
2022-08-12T00:56:25.889Z,53.99
2022-08-12T00:56:35.937Z,53.99
2022-08-12T00:56:45.998Z,53.99
2022-08-12T00:56:56.049Z,53.99
2022-08-12T00:57:06.121Z,53.99
2022-08-12T00:57:16.187Z,53.99
2022-08-12T00:57:26.246Z,53.99
2022-08-12T00:57:36.327Z,53.99
2022-08-12T00:57:46.398Z,53.99
2022-08-12T00:57:56.450Z,53.99
2022-08-12T00:58:06.556Z,53.99
2022-08-12T00:58:16.588Z,53.99
2022-08-12T00:58:26.637Z,53.99
2022-08-12T00:58:36.679Z,53.89
2022-08-12T00:58:46.757Z,53.89
2022-08-12T00:58:56.806Z,53.79
2022-08-12T00:59:06.849Z,53.79
2022-08-12T00:59:16.898Z,53.82
2022-08-12T00:59:26.947Z,53.92
2022-08-12T00:59:36.997Z,53.92
2022-08-12T00:59:47.063Z,53.92
2022-08-12T00:59:57.108Z,53.92
2022-08-12T01:00:07.169Z,53.92
2022-08-12T01:00:17.210Z,53.92
2022-08-12T01:00:27.262Z,53.92
2022-08-12T01:00:37.308Z,53.92
2022-08-12T01:00:47.370Z,53.92
2022-08-12T01:00:57.469Z,53.92
2022-08-12T01:01:07.593Z,53.92
2022-08-12T01:01:17.731Z,54.02
2022-08-12T01:01:27.927Z,54.12
2022-08-12T01:02:02.036Z,54.12
2022-08-12T01:02:02.338Z,54.12
2022-08-12T01:02:10.991Z,54.02
2022-08-12T01:02:12.788Z,53.92
2022-08-12T01:02:21.755Z,53.92
2022-08-12T01:02:31.906Z,53.92
2022-08-12T01:02:42.260Z,53.92
2022-08-12T01:02:51.977Z,53.92
2022-08-12T01:03:02.039Z,53.92
2022-08-12T01:03:12.089Z,54.02
2022-08-12T01:03:22.147Z,54.12
2022-08-12T01:03:32.180Z,54.22
2022-08-12T01:03:42.246Z,54.12
2022-08-12T01:03:52.279Z,54.12
2022-08-12T01:04:02.570Z,54.12
2022-08-12T01:04:12.619Z,54.12
2022-08-12T01:04:22.670Z,54.12
2022-08-12T01:04:32.799Z,54.12
2022-08-12T01:04:42.852Z,54.22
2022-08-12T01:04:52.890Z,54.32
2022-08-12T01:05:03.026Z,54.32
2022-08-12T01:05:13.107Z,54.22
2022-08-12T01:05:23.150Z,54.22
2022-08-12T01:05:33.197Z,54.22
2022-08-12T01:05:43.238Z,54.22
2022-08-12T01:05:53.279Z,54.22
2022-08-12T01:06:03.336Z,54.32
2022-08-12T01:06:13.379Z,54.32
2022-08-12T01:06:23.430Z,54.32
2022-08-12T01:06:33.538Z,54.32
2022-08-12T01:06:43.599Z,54.32
2022-08-12T01:06:53.833Z,54.32
2022-08-12T01:07:03.810Z,54.32
2022-08-12T01:07:13.870Z,54.32
2022-08-12T01:07:23.919Z,54.22
2022-08-12T01:07:33.959Z,54.22
2022-08-12T01:07:43.990Z,54.22
2022-08-12T01:07:54.058Z,54.12
2022-08-12T01:08:04.119Z,54.12
2022-08-12T01:08:14.180Z,54.32
2022-08-12T01:08:24.227Z,54.32
2022-08-12T01:08:34.277Z,54.32
2022-08-12T01:08:44.319Z,54.22
2022-08-12T01:08:54.379Z,54.22
2022-08-12T01:09:04.428Z,54.22
2022-08-12T01:09:14.487Z,54.22
2022-08-12T01:09:24.551Z,54.22
2022-08-12T01:09:34.623Z,54.32
2022-08-12T01:09:44.698Z,54.32
2022-08-12T01:09:54.749Z,54.32
2022-08-12T01:10:04.807Z,54.32
2022-08-12T01:10:14.878Z,54.32
2022-08-12T01:10:27.505Z,54.22
2022-08-12T01:10:35.908Z,54.22
2022-08-12T01:10:45.953Z,54.22
2022-08-12T01:10:56.010Z,54.22
2022-08-12T01:11:06.085Z,54.32
2022-08-12T01:11:16.187Z,54.32
2022-08-12T01:11:26.249Z,54.32
2022-08-12T01:11:36.302Z,54.32
2022-08-12T01:11:46.357Z,54.32
2022-08-12T01:11:56.429Z,54.32
2022-08-12T01:12:06.509Z,54.32
2022-08-12T01:12:16.584Z,54.32
2022-08-12T01:12:26.629Z,54.32
2022-08-12T01:12:36.692Z,54.22
2022-08-12T01:12:46.741Z,54.22
2022-08-12T01:13:07.548Z,54.22
2022-08-12T01:13:19.049Z,54.22
2022-08-12T01:13:19.953Z,54.22
2022-08-12T01:13:28.741Z,54.22
2022-08-12T01:13:38.789Z,54.22
2022-08-12T01:13:48.854Z,54.22
2022-08-12T01:13:58.899Z,54.22
2022-08-12T01:14:08.958Z,54.32
2022-08-12T01:14:19.009Z,54.42
2022-08-12T01:14:29.069Z,54.42
2022-08-12T01:14:39.153Z,54.42
2022-08-12T01:14:49.212Z,54.42
2022-08-12T01:14:59.259Z,54.42
2022-08-12T01:15:09.319Z,54.42
2022-08-12T01:15:19.371Z,54.42
2022-08-12T01:15:29.449Z,54.52
2022-08-12T01:15:39.490Z,54.42
2022-08-12T01:15:49.677Z,54.42
2022-08-12T01:15:59.659Z,54.42
2022-08-12T01:16:09.723Z,54.52
2022-08-12T01:16:19.759Z,54.52
2022-08-12T01:16:29.820Z,54.52
2022-08-12T01:16:39.869Z,54.42
2022-08-12T01:16:49.929Z,54.22
2022-08-12T01:17:00.037Z,54.22
2022-08-12T01:17:10.119Z,54.22
2022-08-12T01:17:20.177Z,54.22
2022-08-12T01:17:30.238Z,54.32
2022-08-12T01:17:40.295Z,54.32
2022-08-12T01:17:50.331Z,54.32
2022-08-12T01:18:00.390Z,54.32
2022-08-12T01:18:10.471Z,54.42
2022-08-12T01:18:20.530Z,54.42
2022-08-12T01:18:30.590Z,54.32
2022-08-12T01:18:40.640Z,54.32
2022-08-12T01:18:50.686Z,54.32
2022-08-12T01:19:00.739Z,54.32
2022-08-12T01:19:10.798Z,54.32
2022-08-12T01:19:22.164Z,54.32
2022-08-12T01:19:30.941Z,54.42
2022-08-12T01:19:40.979Z,54.52
2022-08-12T01:19:51.030Z,54.52
2022-08-12T01:20:01.070Z,54.52
2022-08-12T01:20:11.121Z,54.52
2022-08-12T01:20:21.171Z,54.52
2022-08-12T01:20:31.241Z,54.52
2022-08-12T01:20:41.307Z,54.52
2022-08-12T01:20:51.371Z,54.52
2022-08-12T01:21:01.430Z,54.52
2022-08-12T01:21:11.483Z,54.42
2022-08-12T01:21:21.549Z,54.42
2022-08-12T01:21:31.600Z,54.42
2022-08-12T01:21:41.652Z,54.52
2022-08-12T01:21:51.718Z,54.52
2022-08-12T01:22:01.760Z,54.52
2022-08-12T01:22:11.820Z,54.32
2022-08-12T01:22:21.877Z,54.32
2022-08-12T01:22:31.919Z,54.32
2022-08-12T01:22:42.014Z,54.42
2022-08-12T01:22:52.067Z,54.42
2022-08-12T01:23:02.117Z,54.32
2022-08-12T01:23:12.161Z,54.32
2022-08-12T01:23:22.209Z,54.32
2022-08-12T01:23:32.263Z,54.22
2022-08-12T01:23:42.319Z,54.22
2022-08-12T01:23:52.363Z,54.22
2022-08-12T01:24:29.588Z,54.24
2022-08-12T01:24:30.117Z,54.22
2022-08-12T01:24:31.209Z,54.35
2022-08-12T01:24:35.313Z,54.35
2022-08-12T01:24:45.350Z,54.24
2022-08-12T01:24:55.399Z,54.14
2022-08-12T01:25:05.467Z,54.22
2022-08-12T01:25:15.500Z,54.24
2022-08-12T01:25:25.550Z,54.24
2022-08-12T01:25:39.670Z,54.24
2022-08-12T01:25:55.645Z,54.24
2022-08-12T01:25:57.500Z,54.24
2022-08-12T01:26:07.559Z,54.24
2022-08-12T01:26:17.601Z,54.24
2022-08-12T01:26:27.649Z,54.35
2022-08-12T01:26:37.690Z,54.35
2022-08-12T01:26:47.741Z,54.35
2022-08-12T01:26:57.780Z,54.44
2022-08-12T01:27:08.111Z,54.55
2022-08-12T01:27:17.850Z,54.55
2022-08-12T01:27:27.898Z,54.64
2022-08-12T01:27:37.930Z,54.64
2022-08-12T01:27:47.989Z,54.55
2022-08-12T01:27:58.019Z,54.55
2022-08-12T01:28:08.070Z,54.55
2022-08-12T01:28:18.112Z,54.55
2022-08-12T01:28:28.237Z,54.55
2022-08-12T01:28:38.280Z,54.55
2022-08-12T01:28:48.320Z,54.55
2022-08-12T01:28:58.526Z,54.55
2022-08-12T01:29:08.359Z,54.55
2022-08-12T01:29:18.400Z,54.44
2022-08-12T01:29:28.672Z,54.44
2022-08-12T01:29:38.620Z,54.55
2022-08-12T01:29:48.658Z,54.55
2022-08-12T01:29:58.699Z,54.55
2022-08-12T01:30:08.740Z,54.64
2022-08-12T01:30:18.779Z,54.64
2022-08-12T01:30:28.820Z,54.64
2022-08-12T01:30:38.860Z,54.64
2022-08-12T01:30:48.899Z,54.55
2022-08-12T01:30:58.950Z,54.55
2022-08-12T01:31:11.324Z,54.55
2022-08-12T01:31:19.111Z,54.55
2022-08-12T01:31:29.171Z,54.64
2022-08-12T01:31:39.247Z,54.74
2022-08-12T01:31:49.270Z,54.74
2022-08-12T01:31:59.320Z,54.74
2022-08-12T01:32:09.371Z,54.74
2022-08-12T01:32:19.410Z,54.74
2022-08-12T01:32:29.452Z,54.64
2022-08-12T01:32:39.669Z,54.64
2022-08-12T01:32:49.630Z,54.64
2022-08-12T01:32:59.681Z,54.74
2022-08-12T01:33:09.720Z,54.74
2022-08-12T01:33:19.769Z,54.74
2022-08-12T01:33:29.800Z,54.64
2022-08-12T01:33:39.839Z,54.64
2022-08-12T01:33:49.869Z,54.64
2022-08-12T01:33:59.917Z,54.64
2022-08-12T01:34:35.660Z,54.55
2022-08-12T01:34:35.959Z,54.55
2022-08-12T01:34:36.400Z,54.55
2022-08-12T01:34:42.829Z,54.55
2022-08-12T01:34:52.860Z,54.55
2022-08-12T01:35:02.900Z,54.64
2022-08-12T01:35:12.951Z,54.64
2022-08-12T01:35:22.980Z,54.64
2022-08-12T01:35:33.022Z,54.64
2022-08-12T01:35:43.058Z,54.64
2022-08-12T01:35:57.897Z,54.64
2022-08-12T01:36:07.779Z,54.64
2022-08-12T01:36:14.165Z,54.64
2022-08-12T01:36:24.228Z,54.64
2022-08-12T01:36:34.281Z,54.55
2022-08-12T01:36:44.340Z,54.55
2022-08-12T01:36:54.410Z,54.55
2022-08-12T01:37:04.474Z,54.55
2022-08-12T01:37:14.561Z,54.55
2022-08-12T01:37:24.610Z,54.55
2022-08-12T01:37:34.671Z,54.64
2022-08-12T01:37:44.730Z,54.74
2022-08-12T01:37:54.790Z,54.85
2022-08-12T01:38:04.830Z,54.85
2022-08-12T01:38:14.870Z,54.85
2022-08-12T01:38:29.739Z,54.74
2022-08-12T01:38:35.892Z,54.74
2022-08-12T01:38:45.953Z,54.74
2022-08-12T01:38:56.018Z,54.74
2022-08-12T01:39:06.063Z,54.85
2022-08-12T01:39:16.145Z,54.74
2022-08-12T01:39:26.202Z,54.74
2022-08-12T01:39:36.298Z,54.85
2022-08-12T01:40:33.409Z,54.94
2022-08-12T01:40:33.831Z,54.94
2022-08-12T01:40:35.259Z,55.05
2022-08-12T01:40:35.435Z,54.94
2022-08-12T01:40:36.001Z,54.85
2022-08-12T01:40:45.028Z,54.85
2022-08-12T01:40:52.185Z,54.85
2022-08-12T01:41:02.342Z,54.85
2022-08-12T01:41:12.420Z,54.85
2022-08-12T01:41:22.532Z,54.85
2022-08-12T01:41:32.589Z,54.74
2022-08-12T01:41:42.650Z,54.74
2022-08-12T01:41:53.967Z,54.74
2022-08-12T01:42:03.700Z,54.74
2022-08-12T01:42:13.750Z,54.74
2022-08-12T01:42:23.811Z,54.74
2022-08-12T01:42:33.878Z,54.74
2022-08-12T01:42:43.939Z,54.74
2022-08-12T01:42:53.990Z,54.74
2022-08-12T01:43:04.049Z,54.74
2022-08-12T01:43:14.112Z,54.85
2022-08-12T01:43:24.171Z,54.85
2022-08-12T01:43:34.228Z,54.85
2022-08-12T01:43:44.282Z,54.85
2022-08-12T01:43:54.321Z,54.85
2022-08-12T01:44:04.390Z,54.85
2022-08-12T01:44:14.443Z,54.74
2022-08-12T01:44:25.401Z,54.74
2022-08-12T01:44:35.471Z,54.74
2022-08-12T01:44:45.538Z,54.74
2022-08-12T01:44:55.582Z,54.74
2022-08-12T01:45:05.648Z,54.74
2022-08-12T01:45:15.700Z,54.74
2022-08-12T01:45:25.752Z,54.64
2022-08-12T01:45:43.141Z,54.64
2022-08-12T01:45:46.781Z,54.74
2022-08-12T01:45:57.726Z,54.74
2022-08-12T01:46:07.114Z,54.64
2022-08-12T01:46:17.151Z,54.64
2022-08-12T01:46:27.202Z,54.64
2022-08-12T01:46:37.261Z,54.74
2022-08-12T01:46:47.312Z,54.85
2022-08-12T01:46:57.362Z,54.85
2022-08-12T01:47:07.450Z,54.94
2022-08-12T01:47:17.498Z,54.85
2022-08-12T01:47:27.558Z,54.85
2022-08-12T01:47:37.608Z,54.85
2022-08-12T01:47:47.661Z,54.85
2022-08-12T01:47:57.701Z,54.85
2022-08-12T01:48:07.774Z,54.85
2022-08-12T01:48:17.811Z,54.85
2022-08-12T01:48:27.911Z,54.94
2022-08-12T01:48:37.961Z,55.05
2022-08-12T01:48:48.010Z,54.94
2022-08-12T01:48:58.050Z,54.85
2022-08-12T01:49:08.101Z,54.74
2022-08-12T01:49:18.140Z,54.77
2022-08-12T01:49:28.302Z,54.77
2022-08-12T01:49:38.349Z,54.77
2022-08-12T01:49:48.402Z,54.77
2022-08-12T01:49:58.459Z,54.74
2022-08-12T01:50:08.502Z,54.74
2022-08-12T01:50:18.560Z,54.85
2022-08-12T01:50:28.639Z,54.85
2022-08-12T01:50:38.681Z,54.85
2022-08-12T01:50:48.720Z,54.94
2022-08-12T01:51:01.451Z,54.94
2022-08-12T01:51:09.760Z,55.07
2022-08-12T01:52:15.142Z,54.97
2022-08-12T01:52:15.229Z,54.97
2022-08-12T01:52:15.894Z,55.07
2022-08-12T01:52:20.392Z,54.87
2022-08-12T01:52:20.827Z,54.87
2022-08-12T01:52:22.326Z,54.87
2022-08-12T01:52:26.011Z,54.97
2022-08-12T01:52:36.182Z,54.97
2022-08-12T01:52:46.100Z,54.97
2022-08-12T01:52:56.171Z,54.97
2022-08-12T01:53:06.250Z,54.97
2022-08-12T01:53:16.321Z,54.94
2022-08-12T01:53:26.390Z,54.94
2022-08-12T01:53:50.302Z,54.97
2022-08-12T01:53:50.337Z,54.97
2022-08-12T01:53:57.531Z,54.97
2022-08-12T01:54:07.594Z,54.97
2022-08-12T01:54:17.688Z,54.97
2022-08-12T01:54:27.739Z,55.07
2022-08-12T01:54:37.801Z,55.07
2022-08-12T01:54:47.871Z,54.97
2022-08-12T01:54:57.940Z,54.87
2022-08-12T01:55:08.001Z,54.87
2022-08-12T01:55:18.071Z,54.77
2022-08-12T01:55:28.128Z,54.77
2022-08-12T01:55:38.206Z,54.77
2022-08-12T01:55:48.263Z,54.67
2022-08-12T01:55:58.320Z,54.67
2022-08-12T01:56:08.383Z,54.57
2022-08-12T01:56:18.449Z,54.57
2022-08-12T01:56:28.521Z,54.57
2022-08-12T01:56:38.592Z,54.57
2022-08-12T01:56:48.641Z,54.57
2022-08-12T01:56:58.701Z,54.57
2022-08-12T01:57:08.781Z,54.67
2022-08-12T01:57:58.138Z,54.77
2022-08-12T01:57:59.655Z,54.87
2022-08-12T01:57:59.656Z,54.87
2022-08-12T01:57:59.822Z,54.87
2022-08-12T01:58:02.701Z,54.87
2022-08-12T01:58:12.774Z,54.87
2022-08-12T01:58:22.848Z,54.87
2022-08-12T01:58:32.872Z,54.87
2022-08-12T01:58:42.922Z,54.87
2022-08-12T01:58:53.071Z,54.87
2022-08-12T01:59:03.142Z,54.87
2022-08-12T01:59:13.224Z,54.87
2022-08-12T01:59:23.283Z,54.87
2022-08-12T01:59:33.350Z,54.87
2022-08-12T01:59:43.430Z,54.87
2022-08-12T01:59:53.491Z,54.87
2022-08-12T02:00:03.573Z,54.87
2022-08-12T02:00:13.689Z,54.87
2022-08-12T02:00:35.732Z,54.77
2022-08-12T02:00:43.229Z,54.77
2022-08-12T02:00:54.753Z,54.77
2022-08-12T02:00:56.774Z,54.77
2022-08-12T02:01:06.716Z,54.77
2022-08-12T02:01:16.831Z,54.67
2022-08-12T02:01:26.940Z,54.67
2022-08-12T02:01:37.073Z,54.67
2022-08-12T02:01:47.158Z,54.67
2022-08-12T02:01:57.320Z,54.57
2022-08-12T02:02:07.231Z,54.67
2022-08-12T02:02:17.313Z,54.67
2022-08-12T02:02:27.381Z,54.77
2022-08-12T02:02:37.492Z,54.87
2022-08-12T02:02:47.561Z,54.87
2022-08-12T02:02:57.629Z,54.97
2022-08-12T02:03:07.723Z,54.97
2022-08-12T02:03:17.803Z,55.07
2022-08-12T02:03:27.883Z,55.07
2022-08-12T02:03:37.952Z,54.97
2022-08-12T02:03:48.021Z,54.97
2022-08-12T02:03:58.091Z,54.97
2022-08-12T02:04:08.180Z,54.87
2022-08-12T02:04:18.232Z,54.77
2022-08-12T02:04:28.328Z,54.77
2022-08-12T02:04:38.401Z,54.77
2022-08-12T02:04:48.473Z,54.77
2022-08-12T02:04:58.539Z,54.77
2022-08-12T02:05:08.631Z,54.77
2022-08-12T02:05:18.692Z,54.77
2022-08-12T02:05:28.778Z,54.77
2022-08-12T02:05:38.979Z,54.77
2022-08-12T02:05:49.052Z,54.77
2022-08-12T02:05:59.120Z,54.77
2022-08-12T02:06:09.181Z,54.77
2022-08-12T02:06:19.261Z,54.77
2022-08-12T02:06:29.340Z,54.77
2022-08-12T02:06:39.412Z,54.87
2022-08-12T02:06:49.481Z,54.87
2022-08-12T02:06:59.561Z,54.97
2022-08-12T02:07:09.631Z,54.97
2022-08-12T02:07:19.721Z,54.97
2022-08-12T02:07:29.800Z,54.97
2022-08-12T02:07:39.899Z,54.97
2022-08-12T02:07:49.969Z,54.97
2022-08-12T02:07:59.991Z,54.97
2022-08-12T02:08:10.071Z,54.87
2022-08-12T02:08:20.142Z,54.87
2022-08-12T02:08:30.221Z,54.87
2022-08-12T02:08:40.302Z,54.87
2022-08-12T02:08:52.099Z,54.87
2022-08-12T02:09:00.503Z,54.77
2022-08-12T02:09:10.561Z,54.77
2022-08-12T02:09:20.650Z,54.77
2022-08-12T02:09:30.721Z,54.87
2022-08-12T02:09:40.801Z,54.87
2022-08-12T02:09:50.872Z,54.87
2022-08-12T02:10:00.961Z,54.87
2022-08-12T02:10:11.022Z,54.87
2022-08-12T02:10:50.057Z,54.87
2022-08-12T02:10:51.134Z,54.87
2022-08-12T02:10:51.435Z,54.90